sensor_id;sensor_type;location;lat;lon;timestamp;P1;durP1;ratioP1;P2;durP2;ratioP2
46090;SDS011;31826;53.572;10.170;2022-08-01T00:00:39;13.95;;;8.38;;
46090;SDS011;31826;53.572;10.170;2022-08-01T00:03:05;13.45;;;8.65;;
46090;SDS011;31826;53.572;10.170;2022-08-01T00:05:31;13.38;;;7.60;;
46090;SDS011;31826;53.572;10.170;2022-08-01T00:07:57;12.45;;;7.72;;
46090;SDS011;31826;53.572;10.170;2022-08-01T00:10:23;13.52;;;7.95;;
46090;SDS011;31826;53.572;10.170;2022-08-01T00:12:49;13.77;;;8.20;;
46090;SDS011;31826;53.572;10.170;2022-08-01T00:15:15;12.75;;;7.72;;
46090;SDS011;31826;53.572;10.170;2022-08-01T00:17:42;13.88;;;8.05;;
46090;SDS011;31826;53.572;10.170;2022-08-01T00:20:09;13.13;;;8.00;;
46090;SDS011;31826;53.572;10.170;2022-08-01T00:22:36;13.68;;;8.55;;
46090;SDS011;31826;53.572;10.170;2022-08-01T00:25:03;12.43;;;7.60;;
46090;SDS011;31826;53.572;10.170;2022-08-01T00:27:30;12.98;;;7.88;;
46090;SDS011;31826;53.572;10.170;2022-08-01T00:29:56;14.68;;;7.43;;
46090;SDS011;31826;53.572;10.170;2022-08-01T00:32:22;13.88;;;8.20;;
46090;SDS011;31826;53.572;10.170;2022-08-01T00:34:48;13.77;;;7.00;;
46090;SDS011;31826;53.572;10.170;2022-08-01T00:37:13;12.23;;;7.30;;
46090;SDS011;31826;53.572;10.170;2022-08-01T00:39:39;12.52;;;7.18;;
46090;SDS011;31826;53.572;10.170;2022-08-01T00:42:06;11.77;;;7.15;;
46090;SDS011;31826;53.572;10.170;2022-08-01T00:44:33;13.95;;;7.88;;
46090;SDS011;31826;53.572;10.170;2022-08-01T00:46:59;13.35;;;7.38;;
46090;SDS011;31826;53.572;10.170;2022-08-01T00:49:25;15.18;;;7.93;;
46090;SDS011;31826;53.572;10.170;2022-08-01T00:51:50;14.07;;;8.00;;
46090;SDS011;31826;53.572;10.170;2022-08-01T00:54:16;13.80;;;7.80;;
46090;SDS011;31826;53.572;10.170;2022-08-01T00:56:42;14.23;;;8.10;;
46090;SDS011;31826;53.572;10.170;2022-08-01T00:59:08;13.43;;;7.63;;
46090;SDS011;31826;53.572;10.170;2022-08-01T01:01:36;15.05;;;7.18;;
46090;SDS011;31826;53.572;10.170;2022-08-01T01:04:01;13.98;;;7.50;;
46090;SDS011;31826;53.572;10.170;2022-08-01T01:06:41;13.23;;;7.32;;
46090;SDS011;31826;53.572;10.170;2022-08-01T01:14:51;14.30;;;7.40;;
46090;SDS011;31826;53.572;10.170;2022-08-01T01:17:31;14.63;;;7.33;;
46090;SDS011;31826;53.572;10.170;2022-08-01T01:20:02;14.27;;;7.00;;
46090;SDS011;31826;53.572;10.170;2022-08-01T01:22:46;12.48;;;6.85;;
46090;SDS011;31826;53.572;10.170;2022-08-01T01:30:31;12.50;;;6.47;;
46090;SDS011;31826;53.572;10.170;2022-08-01T01:33:01;12.90;;;6.13;;
46090;SDS011;31826;53.572;10.170;2022-08-01T01:35:34;13.50;;;6.63;;
46090;SDS011;31826;53.572;10.170;2022-08-01T01:38:22;12.23;;;6.13;;
46090;SDS011;31826;53.572;10.170;2022-08-01T01:40:53;11.52;;;5.75;;
46090;SDS011;31826;53.572;10.170;2022-08-01T01:43:20;9.73;;;5.30;;
46090;SDS011;31826;53.572;10.170;2022-08-01T01:45:48;12.75;;;6.30;;
46090;SDS011;31826;53.572;10.170;2022-08-01T01:48:16;13.57;;;6.40;;
46090;SDS011;31826;53.572;10.170;2022-08-01T01:50:45;11.85;;;5.93;;
46090;SDS011;31826;53.572;10.170;2022-08-01T01:53:12;11.00;;;5.85;;
46090;SDS011;31826;53.572;10.170;2022-08-01T01:55:41;13.45;;;6.50;;
46090;SDS011;31826;53.572;10.170;2022-08-01T01:58:09;12.35;;;6.72;;
46090;SDS011;31826;53.572;10.170;2022-08-01T02:00:38;12.75;;;6.30;;
46090;SDS011;31826;53.572;10.170;2022-08-01T02:03:07;12.18;;;5.82;;
46090;SDS011;31826;53.572;10.170;2022-08-01T02:05:35;12.43;;;5.95;;
46090;SDS011;31826;53.572;10.170;2022-08-01T02:08:02;11.70;;;5.80;;
46090;SDS011;31826;53.572;10.170;2022-08-01T02:10:30;13.35;;;5.95;;
46090;SDS011;31826;53.572;10.170;2022-08-01T02:12:59;10.93;;;5.78;;
46090;SDS011;31826;53.572;10.170;2022-08-01T02:15:28;12.70;;;6.53;;
46090;SDS011;31826;53.572;10.170;2022-08-01T02:17:56;12.30;;;6.22;;
46090;SDS011;31826;53.572;10.170;2022-08-01T02:20:24;12.88;;;6.40;;
46090;SDS011;31826;53.572;10.170;2022-08-01T02:22:53;14.37;;;6.70;;
46090;SDS011;31826;53.572;10.170;2022-08-01T02:25:27;11.20;;;5.80;;
46090;SDS011;31826;53.572;10.170;2022-08-01T02:28:09;11.52;;;5.65;;
46090;SDS011;31826;53.572;10.170;2022-08-01T02:30:42;12.18;;;5.88;;
46090;SDS011;31826;53.572;10.170;2022-08-01T02:33:14;11.48;;;5.57;;
46090;SDS011;31826;53.572;10.170;2022-08-01T02:35:42;10.70;;;5.20;;
46090;SDS011;31826;53.572;10.170;2022-08-01T02:38:12;12.02;;;5.68;;
46090;SDS011;31826;53.572;10.170;2022-08-01T02:40:40;10.40;;;5.20;;
46090;SDS011;31826;53.572;10.170;2022-08-01T02:43:10;11.00;;;5.30;;
46090;SDS011;31826;53.572;10.170;2022-08-01T02:45:49;11.05;;;5.70;;
46090;SDS011;31826;53.572;10.170;2022-08-01T02:48:17;11.82;;;5.45;;
46090;SDS011;31826;53.572;10.170;2022-08-01T02:50:47;9.85;;;5.53;;
46090;SDS011;31826;53.572;10.170;2022-08-01T02:53:14;14.32;;;5.60;;
46090;SDS011;31826;53.572;10.170;2022-08-01T02:55:43;10.13;;;5.07;;
46090;SDS011;31826;53.572;10.170;2022-08-01T02:58:12;9.57;;;4.85;;
46090;SDS011;31826;53.572;10.170;2022-08-01T03:00:40;9.85;;;5.20;;
46090;SDS011;31826;53.572;10.170;2022-08-01T03:03:08;13.87;;;5.33;;
46090;SDS011;31826;53.572;10.170;2022-08-01T03:05:35;10.33;;;5.00;;
46090;SDS011;31826;53.572;10.170;2022-08-01T03:08:02;12.00;;;4.90;;
46090;SDS011;31826;53.572;10.170;2022-08-01T03:10:29;9.70;;;4.63;;
46090;SDS011;31826;53.572;10.170;2022-08-01T03:12:58;12.07;;;5.32;;
46090;SDS011;31826;53.572;10.170;2022-08-01T03:15:26;11.90;;;5.13;;
46090;SDS011;31826;53.572;10.170;2022-08-01T03:17:55;10.65;;;4.82;;
46090;SDS011;31826;53.572;10.170;2022-08-01T03:20:23;10.48;;;5.53;;
46090;SDS011;31826;53.572;10.170;2022-08-01T03:22:52;11.35;;;5.20;;
46090;SDS011;31826;53.572;10.170;2022-08-01T03:25:19;13.65;;;5.57;;
46090;SDS011;31826;53.572;10.170;2022-08-01T03:27:50;11.57;;;5.33;;
46090;SDS011;31826;53.572;10.170;2022-08-01T03:30:21;11.15;;;5.47;;
46090;SDS011;31826;53.572;10.170;2022-08-01T03:32:48;9.57;;;5.03;;
46090;SDS011;31826;53.572;10.170;2022-08-01T03:35:14;9.20;;;4.85;;
46090;SDS011;31826;53.572;10.170;2022-08-01T03:37:41;9.07;;;4.88;;
46090;SDS011;31826;53.572;10.170;2022-08-01T03:40:20;10.02;;;4.88;;
46090;SDS011;31826;53.572;10.170;2022-08-01T03:42:50;9.43;;;4.90;;
46090;SDS011;31826;53.572;10.170;2022-08-01T03:45:30;11.35;;;5.30;;
46090;SDS011;31826;53.572;10.170;2022-08-01T03:48:00;10.82;;;4.78;;
46090;SDS011;31826;53.572;10.170;2022-08-01T03:50:28;10.82;;;5.28;;
46090;SDS011;31826;53.572;10.170;2022-08-01T03:52:59;9.40;;;5.43;;
46090;SDS011;31826;53.572;10.170;2022-08-01T03:55:26;12.60;;;5.63;;
46090;SDS011;31826;53.572;10.170;2022-08-01T03:57:54;9.73;;;4.80;;
46090;SDS011;31826;53.572;10.170;2022-08-01T04:00:21;8.50;;;4.72;;
46090;SDS011;31826;53.572;10.170;2022-08-01T04:02:49;9.85;;;5.03;;
46090;SDS011;31826;53.572;10.170;2022-08-01T04:05:16;8.98;;;4.88;;
46090;SDS011;31826;53.572;10.170;2022-08-01T04:07:46;10.37;;;4.70;;
46090;SDS011;31826;53.572;10.170;2022-08-01T04:10:21;8.37;;;4.30;;
46090;SDS011;31826;53.572;10.170;2022-08-01T04:12:48;8.15;;;4.28;;
46090;SDS011;31826;53.572;10.170;2022-08-01T04:15:14;8.77;;;4.40;;
46090;SDS011;31826;53.572;10.170;2022-08-01T04:17:40;7.55;;;3.70;;
46090;SDS011;31826;53.572;10.170;2022-08-01T04:20:06;9.40;;;4.40;;
46090;SDS011;31826;53.572;10.170;2022-08-01T04:22:32;8.70;;;3.57;;
46090;SDS011;31826;53.572;10.170;2022-08-01T04:24:59;9.20;;;3.85;;
46090;SDS011;31826;53.572;10.170;2022-08-01T04:27:31;8.85;;;3.75;;
46090;SDS011;31826;53.572;10.170;2022-08-01T04:30:00;7.00;;;3.47;;
46090;SDS011;31826;53.572;10.170;2022-08-01T04:32:27;9.35;;;4.20;;
46090;SDS011;31826;53.572;10.170;2022-08-01T04:34:59;7.30;;;3.70;;
46090;SDS011;31826;53.572;10.170;2022-08-01T04:37:27;6.87;;;3.80;;
46090;SDS011;31826;53.572;10.170;2022-08-01T04:39:55;7.05;;;3.50;;
46090;SDS011;31826;53.572;10.170;2022-08-01T04:42:24;7.72;;;3.92;;
46090;SDS011;31826;53.572;10.170;2022-08-01T04:44:50;6.10;;;3.40;;
46090;SDS011;31826;53.572;10.170;2022-08-01T04:47:16;5.88;;;3.05;;
46090;SDS011;31826;53.572;10.170;2022-08-01T04:49:42;6.53;;;3.10;;
46090;SDS011;31826;53.572;10.170;2022-08-01T04:52:11;9.63;;;3.60;;
46090;SDS011;31826;53.572;10.170;2022-08-01T04:54:37;6.37;;;3.17;;
46090;SDS011;31826;53.572;10.170;2022-08-01T04:57:05;6.37;;;3.30;;
46090;SDS011;31826;53.572;10.170;2022-08-01T04:59:31;7.38;;;3.75;;
46090;SDS011;31826;53.572;10.170;2022-08-01T05:02:15;8.57;;;3.42;;
46090;SDS011;31826;53.572;10.170;2022-08-01T05:04:43;7.32;;;3.70;;
46090;SDS011;31826;53.572;10.170;2022-08-01T05:07:10;7.57;;;3.42;;
46090;SDS011;31826;53.572;10.170;2022-08-01T05:09:36;8.57;;;3.40;;
46090;SDS011;31826;53.572;10.170;2022-08-01T05:12:04;6.63;;;3.17;;
46090;SDS011;31826;53.572;10.170;2022-08-01T05:14:31;7.15;;;3.33;;
46090;SDS011;31826;53.572;10.170;2022-08-01T05:17:01;6.50;;;3.10;;
46090;SDS011;31826;53.572;10.170;2022-08-01T05:19:38;7.03;;;3.15;;
46090;SDS011;31826;53.572;10.170;2022-08-01T05:22:05;6.32;;;2.90;;
46090;SDS011;31826;53.572;10.170;2022-08-01T05:24:35;6.47;;;3.10;;
46090;SDS011;31826;53.572;10.170;2022-08-01T05:27:02;5.72;;;2.88;;
46090;SDS011;31826;53.572;10.170;2022-08-01T05:29:29;6.05;;;2.90;;
46090;SDS011;31826;53.572;10.170;2022-08-01T05:31:55;6.23;;;3.50;;
46090;SDS011;31826;53.572;10.170;2022-08-01T05:34:21;5.95;;;2.70;;
46090;SDS011;31826;53.572;10.170;2022-08-01T05:36:47;2.78;;;1.92;;
46090;SDS011;31826;53.572;10.170;2022-08-01T05:39:13;4.17;;;1.90;;
46090;SDS011;31826;53.572;10.170;2022-08-01T05:41:40;2.67;;;1.60;;
46090;SDS011;31826;53.572;10.170;2022-08-01T05:44:06;3.78;;;1.40;;
46090;SDS011;31826;53.572;10.170;2022-08-01T05:46:32;3.08;;;1.40;;
46090;SDS011;31826;53.572;10.170;2022-08-01T05:48:58;2.60;;;1.48;;
46090;SDS011;31826;53.572;10.170;2022-08-01T05:51:25;2.22;;;1.52;;
46090;SDS011;31826;53.572;10.170;2022-08-01T05:53:51;3.65;;;1.67;;
46090;SDS011;31826;53.572;10.170;2022-08-01T05:56:18;2.57;;;1.60;;
46090;SDS011;31826;53.572;10.170;2022-08-01T05:58:44;2.55;;;1.50;;
46090;SDS011;31826;53.572;10.170;2022-08-01T06:01:09;4.53;;;1.70;;
46090;SDS011;31826;53.572;10.170;2022-08-01T06:03:36;4.50;;;1.92;;
46090;SDS011;31826;53.572;10.170;2022-08-01T06:06:02;4.28;;;2.00;;
46090;SDS011;31826;53.572;10.170;2022-08-01T06:08:28;2.70;;;1.50;;
46090;SDS011;31826;53.572;10.170;2022-08-01T06:10:54;5.55;;;1.50;;
46090;SDS011;31826;53.572;10.170;2022-08-01T06:13:20;3.75;;;1.70;;
46090;SDS011;31826;53.572;10.170;2022-08-01T06:15:47;3.75;;;1.50;;
46090;SDS011;31826;53.572;10.170;2022-08-01T06:18:13;3.83;;;1.80;;
46090;SDS011;31826;53.572;10.170;2022-08-01T06:20:39;3.28;;;1.67;;
46090;SDS011;31826;53.572;10.170;2022-08-01T06:23:06;4.55;;;1.80;;
46090;SDS011;31826;53.572;10.170;2022-08-01T06:25:32;4.68;;;1.75;;
46090;SDS011;31826;53.572;10.170;2022-08-01T06:27:58;4.82;;;1.70;;
46090;SDS011;31826;53.572;10.170;2022-08-01T06:30:24;3.25;;;1.70;;
46090;SDS011;31826;53.572;10.170;2022-08-01T06:32:50;3.50;;;1.75;;
46090;SDS011;31826;53.572;10.170;2022-08-01T06:35:16;6.63;;;2.17;;
46090;SDS011;31826;53.572;10.170;2022-08-01T06:37:42;4.00;;;1.90;;
46090;SDS011;31826;53.572;10.170;2022-08-01T06:40:10;5.28;;;2.08;;
46090;SDS011;31826;53.572;10.170;2022-08-01T06:42:36;7.20;;;2.10;;
46090;SDS011;31826;53.572;10.170;2022-08-01T06:45:06;6.55;;;1.98;;
46090;SDS011;31826;53.572;10.170;2022-08-01T06:47:36;5.53;;;2.00;;
46090;SDS011;31826;53.572;10.170;2022-08-01T06:50:03;6.80;;;2.00;;
46090;SDS011;31826;53.572;10.170;2022-08-01T06:52:29;4.78;;;1.95;;
46090;SDS011;31826;53.572;10.170;2022-08-01T06:54:55;9.87;;;2.20;;
46090;SDS011;31826;53.572;10.170;2022-08-01T06:57:20;5.10;;;1.90;;
46090;SDS011;31826;53.572;10.170;2022-08-01T06:59:46;10.45;;;2.25;;
46090;SDS011;31826;53.572;10.170;2022-08-01T07:02:12;9.27;;;1.90;;
46090;SDS011;31826;53.572;10.170;2022-08-01T07:04:38;10.60;;;2.20;;
46090;SDS011;31826;53.572;10.170;2022-08-01T07:07:03;7.63;;;2.53;;
46090;SDS011;31826;53.572;10.170;2022-08-01T07:09:29;7.57;;;2.20;;
46090;SDS011;31826;53.572;10.170;2022-08-01T07:11:55;6.80;;;2.40;;
46090;SDS011;31826;53.572;10.170;2022-08-01T07:14:21;8.10;;;2.37;;
46090;SDS011;31826;53.572;10.170;2022-08-01T07:16:48;7.70;;;2.38;;
46090;SDS011;31826;53.572;10.170;2022-08-01T07:19:14;6.03;;;2.90;;
46090;SDS011;31826;53.572;10.170;2022-08-01T07:21:40;8.38;;;2.85;;
46090;SDS011;31826;53.572;10.170;2022-08-01T07:24:07;8.75;;;2.92;;
46090;SDS011;31826;53.572;10.170;2022-08-01T07:26:34;11.20;;;3.08;;
46090;SDS011;31826;53.572;10.170;2022-08-01T07:28:59;7.82;;;2.92;;
46090;SDS011;31826;53.572;10.170;2022-08-01T07:31:25;10.25;;;3.35;;
46090;SDS011;31826;53.572;10.170;2022-08-01T07:33:51;7.53;;;3.20;;
46090;SDS011;31826;53.572;10.170;2022-08-01T07:36:17;7.27;;;2.90;;
46090;SDS011;31826;53.572;10.170;2022-08-01T07:38:43;7.22;;;3.03;;
46090;SDS011;31826;53.572;10.170;2022-08-01T07:41:09;6.68;;;2.80;;
46090;SDS011;31826;53.572;10.170;2022-08-01T07:43:35;9.87;;;3.20;;
46090;SDS011;31826;53.572;10.170;2022-08-01T07:46:04;6.60;;;2.87;;
46090;SDS011;31826;53.572;10.170;2022-08-01T07:48:30;8.03;;;3.30;;
46090;SDS011;31826;53.572;10.170;2022-08-01T07:50:56;13.43;;;3.97;;
46090;SDS011;31826;53.572;10.170;2022-08-01T07:53:22;10.90;;;3.38;;
46090;SDS011;31826;53.572;10.170;2022-08-01T07:55:48;12.03;;;4.60;;
46090;SDS011;31826;53.572;10.170;2022-08-01T07:58:14;9.30;;;3.47;;
46090;SDS011;31826;53.572;10.170;2022-08-01T08:00:40;10.38;;;3.67;;
46090;SDS011;31826;53.572;10.170;2022-08-01T08:03:06;6.43;;;3.10;;
46090;SDS011;31826;53.572;10.170;2022-08-01T08:05:32;10.05;;;2.75;;
46090;SDS011;31826;53.572;10.170;2022-08-01T08:08:04;8.55;;;3.40;;
46090;SDS011;31826;53.572;10.170;2022-08-01T08:10:31;7.80;;;2.60;;
46090;SDS011;31826;53.572;10.170;2022-08-01T08:12:57;10.07;;;2.53;;
46090;SDS011;31826;53.572;10.170;2022-08-01T08:15:22;9.10;;;2.58;;
46090;SDS011;31826;53.572;10.170;2022-08-01T08:17:48;7.87;;;2.50;;
46090;SDS011;31826;53.572;10.170;2022-08-01T08:20:14;9.10;;;2.90;;
46090;SDS011;31826;53.572;10.170;2022-08-01T08:22:39;9.68;;;2.72;;
46090;SDS011;31826;53.572;10.170;2022-08-01T08:25:05;7.15;;;2.58;;
46090;SDS011;31826;53.572;10.170;2022-08-01T08:27:32;7.85;;;2.53;;
46090;SDS011;31826;53.572;10.170;2022-08-01T08:29:57;12.47;;;3.70;;
46090;SDS011;31826;53.572;10.170;2022-08-01T08:32:23;8.32;;;2.70;;
46090;SDS011;31826;53.572;10.170;2022-08-01T08:34:49;7.78;;;2.60;;
46090;SDS011;31826;53.572;10.170;2022-08-01T08:37:15;6.70;;;2.15;;
46090;SDS011;31826;53.572;10.170;2022-08-01T08:39:42;7.55;;;2.47;;
46090;SDS011;31826;53.572;10.170;2022-08-01T08:42:08;6.03;;;1.95;;
46090;SDS011;31826;53.572;10.170;2022-08-01T08:44:35;7.55;;;2.03;;
46090;SDS011;31826;53.572;10.170;2022-08-01T08:47:02;8.60;;;2.55;;
46090;SDS011;31826;53.572;10.170;2022-08-01T08:49:31;8.63;;;2.25;;
46090;SDS011;31826;53.572;10.170;2022-08-01T08:51:59;7.90;;;2.40;;
46090;SDS011;31826;53.572;10.170;2022-08-01T08:54:25;7.30;;;2.08;;
46090;SDS011;31826;53.572;10.170;2022-08-01T08:56:53;8.65;;;3.30;;
46090;SDS011;31826;53.572;10.170;2022-08-01T08:59:19;7.03;;;2.15;;
46090;SDS011;31826;53.572;10.170;2022-08-01T09:01:46;5.25;;;1.83;;
46090;SDS011;31826;53.572;10.170;2022-08-01T09:04:12;8.38;;;2.45;;
46090;SDS011;31826;53.572;10.170;2022-08-01T09:06:38;6.63;;;2.10;;
46090;SDS011;31826;53.572;10.170;2022-08-01T09:09:05;6.30;;;2.00;;
46090;SDS011;31826;53.572;10.170;2022-08-01T09:11:31;6.95;;;2.45;;
46090;SDS011;31826;53.572;10.170;2022-08-01T09:14:02;6.72;;;1.95;;
46090;SDS011;31826;53.572;10.170;2022-08-01T09:16:42;5.70;;;1.88;;
46090;SDS011;31826;53.572;10.170;2022-08-01T09:19:13;8.03;;;2.07;;
46090;SDS011;31826;53.572;10.170;2022-08-01T09:21:40;3.75;;;1.70;;
46090;SDS011;31826;53.572;10.170;2022-08-01T09:24:25;6.18;;;2.30;;
46090;SDS011;31826;53.572;10.170;2022-08-01T09:26:52;4.38;;;2.13;;
46090;SDS011;31826;53.572;10.170;2022-08-01T09:29:27;7.15;;;2.33;;
46090;SDS011;31826;53.572;10.170;2022-08-01T09:31:55;7.72;;;1.95;;
46090;SDS011;31826;53.572;10.170;2022-08-01T09:34:30;9.20;;;2.40;;
46090;SDS011;31826;53.572;10.170;2022-08-01T09:36:57;3.55;;;1.65;;
46090;SDS011;31826;53.572;10.170;2022-08-01T09:39:25;3.75;;;1.50;;
46090;SDS011;31826;53.572;10.170;2022-08-01T09:41:53;8.68;;;2.00;;
46090;SDS011;31826;53.572;10.170;2022-08-01T09:44:35;7.95;;;1.70;;
46090;SDS011;31826;53.572;10.170;2022-08-01T09:47:06;9.57;;;2.20;;
46090;SDS011;31826;53.572;10.170;2022-08-01T09:49:33;4.20;;;1.73;;
46090;SDS011;31826;53.572;10.170;2022-08-01T09:52:22;6.15;;;1.60;;
46090;SDS011;31826;53.572;10.170;2022-08-01T09:57:19;6.03;;;2.03;;
46090;SDS011;31826;53.572;10.170;2022-08-01T09:59:46;6.13;;;1.85;;
46090;SDS011;31826;53.572;10.170;2022-08-01T10:02:14;4.88;;;1.55;;
46090;SDS011;31826;53.572;10.170;2022-08-01T10:04:51;6.68;;;1.88;;
46090;SDS011;31826;53.572;10.170;2022-08-01T10:07:18;5.43;;;1.67;;
46090;SDS011;31826;53.572;10.170;2022-08-01T10:09:44;6.43;;;1.73;;
46090;SDS011;31826;53.572;10.170;2022-08-01T10:12:15;6.28;;;1.83;;
46090;SDS011;31826;53.572;10.170;2022-08-01T10:14:43;6.53;;;2.08;;
46090;SDS011;31826;53.572;10.170;2022-08-01T10:17:12;6.15;;;1.75;;
46090;SDS011;31826;53.572;10.170;2022-08-01T10:19:40;4.75;;;1.40;;
46090;SDS011;31826;53.572;10.170;2022-08-01T10:22:08;6.05;;;1.75;;
46090;SDS011;31826;53.572;10.170;2022-08-01T10:24:36;9.10;;;1.80;;
46090;SDS011;31826;53.572;10.170;2022-08-01T10:27:05;7.07;;;1.90;;
46090;SDS011;31826;53.572;10.170;2022-08-01T10:29:34;12.63;;;2.70;;
46090;SDS011;31826;53.572;10.170;2022-08-01T10:32:07;8.40;;;2.30;;
46090;SDS011;31826;53.572;10.170;2022-08-01T10:34:35;6.82;;;1.70;;
46090;SDS011;31826;53.572;10.170;2022-08-01T10:37:06;5.72;;;1.83;;
46090;SDS011;31826;53.572;10.170;2022-08-01T10:39:33;6.20;;;1.63;;
46090;SDS011;31826;53.572;10.170;2022-08-01T10:41:59;6.97;;;1.63;;
46090;SDS011;31826;53.572;10.170;2022-08-01T10:44:26;7.32;;;1.65;;
46090;SDS011;31826;53.572;10.170;2022-08-01T10:47:15;7.30;;;1.60;;
46090;SDS011;31826;53.572;10.170;2022-08-01T10:49:47;6.50;;;2.08;;
46090;SDS011;31826;53.572;10.170;2022-08-01T10:52:17;8.68;;;1.48;;
46090;SDS011;31826;53.572;10.170;2022-08-01T10:54:43;6.38;;;1.73;;
46090;SDS011;31826;53.572;10.170;2022-08-01T10:57:10;7.38;;;1.75;;
46090;SDS011;31826;53.572;10.170;2022-08-01T10:59:46;5.00;;;1.40;;
46090;SDS011;31826;53.572;10.170;2022-08-01T11:02:24;6.55;;;1.67;;
46090;SDS011;31826;53.572;10.170;2022-08-01T11:04:56;4.85;;;1.50;;
46090;SDS011;31826;53.572;10.170;2022-08-01T11:08:09;3.88;;;1.38;;
46090;SDS011;31826;53.572;10.170;2022-08-01T11:16:29;3.35;;;1.20;;
46090;SDS011;31826;53.572;10.170;2022-08-01T11:18:56;6.70;;;1.52;;
46090;SDS011;31826;53.572;10.170;2022-08-01T11:21:22;5.20;;;1.48;;
46090;SDS011;31826;53.572;10.170;2022-08-01T11:32:56;6.03;;;1.30;;
46090;SDS011;31826;53.572;10.170;2022-08-01T11:35:24;5.18;;;1.23;;
46090;SDS011;31826;53.572;10.170;2022-08-01T11:37:52;5.55;;;1.63;;
46090;SDS011;31826;53.572;10.170;2022-08-01T11:45:51;9.50;;;1.58;;
46090;SDS011;31826;53.572;10.170;2022-08-01T11:48:23;4.40;;;1.15;;
46090;SDS011;31826;53.572;10.170;2022-08-01T11:50:53;3.55;;;1.20;;
46090;SDS011;31826;53.572;10.170;2022-08-01T11:53:19;6.40;;;1.10;;
46090;SDS011;31826;53.572;10.170;2022-08-01T11:55:46;6.53;;;1.63;;
46090;SDS011;31826;53.572;10.170;2022-08-01T11:58:20;4.93;;;1.45;;
46090;SDS011;31826;53.572;10.170;2022-08-01T12:00:53;4.70;;;1.30;;
46090;SDS011;31826;53.572;10.170;2022-08-01T12:03:27;6.20;;;1.35;;
46090;SDS011;31826;53.572;10.170;2022-08-01T12:05:54;3.30;;;0.90;;
46090;SDS011;31826;53.572;10.170;2022-08-01T12:08:28;5.22;;;1.33;;
46090;SDS011;31826;53.572;10.170;2022-08-01T12:10:55;4.90;;;1.33;;
46090;SDS011;31826;53.572;10.170;2022-08-01T12:13:21;5.30;;;1.10;;
46090;SDS011;31826;53.572;10.170;2022-08-01T12:15:47;7.78;;;1.40;;
46090;SDS011;31826;53.572;10.170;2022-08-01T12:18:15;4.20;;;1.23;;
46090;SDS011;31826;53.572;10.170;2022-08-01T12:20:42;3.90;;;1.20;;
46090;SDS011;31826;53.572;10.170;2022-08-01T12:23:10;4.27;;;1.40;;
46090;SDS011;31826;53.572;10.170;2022-08-01T12:25:37;6.03;;;1.30;;
46090;SDS011;31826;53.572;10.170;2022-08-01T12:28:09;5.78;;;1.45;;
46090;SDS011;31826;53.572;10.170;2022-08-01T12:30:40;3.05;;;1.20;;
46090;SDS011;31826;53.572;10.170;2022-08-01T12:33:07;5.83;;;1.17;;
46090;SDS011;31826;53.572;10.170;2022-08-01T12:35:34;5.35;;;1.00;;
46090;SDS011;31826;53.572;10.170;2022-08-01T12:38:03;4.05;;;1.17;;
46090;SDS011;31826;53.572;10.170;2022-08-01T12:40:32;3.88;;;1.10;;
46090;SDS011;31826;53.572;10.170;2022-08-01T12:43:06;4.83;;;1.57;;
46090;SDS011;31826;53.572;10.170;2022-08-01T12:45:42;4.33;;;1.00;;
46090;SDS011;31826;53.572;10.170;2022-08-01T12:48:10;3.63;;;1.23;;
46090;SDS011;31826;53.572;10.170;2022-08-01T12:50:39;4.18;;;1.00;;
46090;SDS011;31826;53.572;10.170;2022-08-01T12:53:07;4.13;;;1.10;;
46090;SDS011;31826;53.572;10.170;2022-08-01T12:55:40;4.50;;;1.10;;
46090;SDS011;31826;53.572;10.170;2022-08-01T12:58:14;4.25;;;1.27;;
46090;SDS011;31826;53.572;10.170;2022-08-01T13:00:42;5.03;;;1.10;;
46090;SDS011;31826;53.572;10.170;2022-08-01T13:03:10;2.42;;;0.93;;
46090;SDS011;31826;53.572;10.170;2022-08-01T13:08:25;5.70;;;1.10;;
46090;SDS011;31826;53.572;10.170;2022-08-01T13:11:04;4.93;;;1.50;;
46090;SDS011;31826;53.572;10.170;2022-08-01T13:16:06;4.18;;;1.27;;
46090;SDS011;31826;53.572;10.170;2022-08-01T13:18:33;2.85;;;0.90;;
46090;SDS011;31826;53.572;10.170;2022-08-01T13:21:07;2.63;;;0.90;;
46090;SDS011;31826;53.572;10.170;2022-08-01T13:23:40;2.10;;;1.02;;
46090;SDS011;31826;53.572;10.170;2022-08-01T13:29:16;2.42;;;0.98;;
46090;SDS011;31826;53.572;10.170;2022-08-01T13:31:42;5.15;;;1.42;;
46090;SDS011;31826;53.572;10.170;2022-08-01T13:34:08;4.50;;;1.02;;
46090;SDS011;31826;53.572;10.170;2022-08-01T13:36:35;4.65;;;1.00;;
46090;SDS011;31826;53.572;10.170;2022-08-01T13:39:02;2.80;;;1.00;;
46090;SDS011;31826;53.572;10.170;2022-08-01T13:41:47;3.08;;;0.80;;
46090;SDS011;31826;53.572;10.170;2022-08-01T13:44:13;5.20;;;1.20;;
46090;SDS011;31826;53.572;10.170;2022-08-01T13:46:40;4.82;;;1.13;;
46090;SDS011;31826;53.572;10.170;2022-08-01T13:49:08;4.55;;;1.20;;
46090;SDS011;31826;53.572;10.170;2022-08-01T13:51:35;4.40;;;1.00;;
46090;SDS011;31826;53.572;10.170;2022-08-01T13:54:02;3.80;;;0.90;;
46090;SDS011;31826;53.572;10.170;2022-08-01T13:56:28;5.25;;;1.10;;
46090;SDS011;31826;53.572;10.170;2022-08-01T13:58:54;4.15;;;1.00;;
46090;SDS011;31826;53.572;10.170;2022-08-01T14:01:21;3.60;;;1.10;;
46090;SDS011;31826;53.572;10.170;2022-08-01T14:03:47;4.60;;;1.40;;
46090;SDS011;31826;53.572;10.170;2022-08-01T14:06:13;6.68;;;1.83;;
46090;SDS011;31826;53.572;10.170;2022-08-01T14:08:41;2.65;;;1.10;;
46090;SDS011;31826;53.572;10.170;2022-08-01T14:11:07;5.43;;;1.20;;
46090;SDS011;31826;53.572;10.170;2022-08-01T14:13:33;4.50;;;1.13;;
46090;SDS011;31826;53.572;10.170;2022-08-01T14:15:59;3.60;;;1.15;;
46090;SDS011;31826;53.572;10.170;2022-08-01T14:18:25;4.03;;;1.00;;
46090;SDS011;31826;53.572;10.170;2022-08-01T14:20:51;4.68;;;1.13;;
46090;SDS011;31826;53.572;10.170;2022-08-01T14:23:17;4.70;;;1.00;;
46090;SDS011;31826;53.572;10.170;2022-08-01T14:25:43;4.73;;;0.90;;
46090;SDS011;31826;53.572;10.170;2022-08-01T14:28:09;4.13;;;1.00;;
46090;SDS011;31826;53.572;10.170;2022-08-01T14:30:35;5.60;;;1.20;;
46090;SDS011;31826;53.572;10.170;2022-08-01T14:33:01;4.10;;;1.00;;
46090;SDS011;31826;53.572;10.170;2022-08-01T14:35:27;4.77;;;1.10;;
46090;SDS011;31826;53.572;10.170;2022-08-01T14:37:52;3.63;;;0.93;;
46090;SDS011;31826;53.572;10.170;2022-08-01T14:40:18;4.70;;;1.60;;
46090;SDS011;31826;53.572;10.170;2022-08-01T14:42:44;2.70;;;1.05;;
46090;SDS011;31826;53.572;10.170;2022-08-01T14:45:11;5.93;;;1.10;;
46090;SDS011;31826;53.572;10.170;2022-08-01T14:47:38;5.27;;;1.30;;
46090;SDS011;31826;53.572;10.170;2022-08-01T14:50:06;4.63;;;1.35;;
46090;SDS011;31826;53.572;10.170;2022-08-01T14:52:33;6.18;;;1.33;;
46090;SDS011;31826;53.572;10.170;2022-08-01T14:55:01;3.55;;;1.10;;
46090;SDS011;31826;53.572;10.170;2022-08-01T14:57:27;2.75;;;1.02;;
46090;SDS011;31826;53.572;10.170;2022-08-01T14:59:52;5.57;;;1.00;;
46090;SDS011;31826;53.572;10.170;2022-08-01T15:02:18;3.95;;;1.00;;
46090;SDS011;31826;53.572;10.170;2022-08-01T15:04:44;4.22;;;1.30;;
46090;SDS011;31826;53.572;10.170;2022-08-01T15:07:14;5.93;;;1.40;;
46090;SDS011;31826;53.572;10.170;2022-08-01T15:09:41;4.00;;;1.10;;
46090;SDS011;31826;53.572;10.170;2022-08-01T15:12:07;4.90;;;1.30;;
46090;SDS011;31826;53.572;10.170;2022-08-01T15:14:33;5.63;;;1.47;;
46090;SDS011;31826;53.572;10.170;2022-08-01T15:17:19;6.17;;;1.30;;
46090;SDS011;31826;53.572;10.170;2022-08-01T15:19:46;3.33;;;1.40;;